Time;durP1;ratioP1;P1;durP2;ratioP2;P2;SDS_P1;SDS_P2;PMS_P1;PMS_P2;Temp;Humidity;BMP_temperature;BMP_pressure;BME280_temperature;BME280_humidity;BME280_pressure;Samples;Min_cycle;Max_cycle;Signal;HPM_P1;HPM_P2
2022/10/04 00:00:25;;;;;;;5.43;2.15;;;12.10;99.90;;;;;;5091893;28;20032;-80
2022/10/04 00:02:55;;;;;;;4.78;2.20;;;12.20;99.90;;;;;;5090848;28;20094;-81
2022/10/04 00:05:24;;;;;;;7.47;3.78;;;12.10;99.90;;;;;;5074567;28;20098;-80
2022/10/04 00:07:54;;;;;;;6.72;2.40;;;12.10;99.90;;;;;;5085569;28;20047;-80
2022/10/04 00:10:25;;;;;;;6.60;2.45;;;12.10;99.90;;;;;;5088532;28;20508;-80
2022/10/04 00:12:56;;;;;;;7.20;2.80;;;12.10;99.90;;;;;;5072016;28;20071;-80
2022/10/04 00:15:26;;;;;;;7.95;3.00;;;12.10;99.90;;;;;;5089500;28;20094;-81
2022/10/04 00:18:10;;;;;;;6.43;2.97;;;12.10;99.90;;;;;;5089788;28;20047;-81
2022/10/04 00:20:52;;;;;;;6.53;2.80;;;12.10;99.90;;;;;;5088787;28;20093;-82
2022/10/04 00:23:23;;;;;;;5.22;3.08;;;12.10;99.90;;;;;;5089739;28;20043;-82
2022/10/04 00:26:01;;;;;;;10.05;3.10;;;12.10;99.90;;;;;;5073539;28;20036;-81
2022/10/04 00:28:49;;;;;;;3.92;2.35;;;12.00;99.90;;;;;;5092213;28;20082;-82
2022/10/04 00:32:01;;;;;;;4.47;2.65;;;12.00;99.90;;;;;;5089459;28;20080;-80
2022/10/04 00:34:27;;;;;;;5.57;2.50;;;12.00;99.90;;;;;;5045466;28;20079;-80
2022/10/04 00:36:54;;;;;;;5.20;3.03;;;12.00;99.90;;;;;;5091260;28;20036;-81
2022/10/04 00:39:32;;;;;;;8.82;2.70;;;11.90;99.90;;;;;;5094020;28;20482;-80
2022/10/04 00:42:16;;;;;;;6.10;2.75;;;11.90;99.90;;;;;;5092149;28;20047;-80
2022/10/04 00:45:00;;;;;;;10.10;3.17;;;11.90;99.90;;;;;;5078060;28;20097;-80
2022/10/04 00:47:38;;;;;;;7.20;2.63;;;11.90;99.90;;;;;;5095268;28;20500;-82
2022/10/04 00:50:23;;;;;;;7.03;3.25;;;11.90;99.90;;;;;;5077828;28;20059;-81
2022/10/04 00:52:56;;;;;;;7.95;2.75;;;12.00;99.90;;;;;;5111737;28;20097;-82
2022/10/04 00:55:40;;;;;;;9.05;3.30;;;12.00;99.90;;;;;;5078410;28;20036;-81
2022/10/04 00:58:17;;;;;;;7.72;2.80;;;12.00;99.90;;;;;;5095023;28;20106;-82
2022/10/04 01:00:46;;;;;;;7.20;3.08;;;12.00;99.90;;;;;;5094244;28;20047;-82
2022/10/04 01:03:26;;;;;;;5.80;2.70;;;12.00;99.90;;;;;;5094216;28;20413;-82
2022/10/04 01:05:58;;;;;;;5.53;2.72;;;12.00;99.90;;;;;;5094796;28;20040;-82
2022/10/04 01:08:47;;;;;;;6.95;2.45;;;12.00;99.90;;;;;;5078056;28;20509;-82
2022/10/04 01:11:18;;;;;;;9.50;3.10;;;12.00;99.90;;;;;;5093913;28;20040;-82
2022/10/04 01:13:58;;;;;;;5.28;2.63;;;12.10;99.90;;;;;;5084730;28;20068;-82
2022/10/04 01:16:28;;;;;;;6.50;2.65;;;12.10;99.90;;;;;;5076856;28;20043;-81
2022/10/04 01:18:55;;;;;;;5.78;2.30;;;12.10;99.90;;;;;;5092775;28;20040;-82
2022/10/04 01:21:29;;;;;;;5.38;2.60;;;12.20;99.90;;;;;;5076903;28;20043;-81
2022/10/04 01:23:56;;;;;;;7.78;2.60;;;12.10;99.90;;;;;;5093425;28;20146;-81
2022/10/04 01:26:33;;;;;;;5.95;2.63;;;12.10;99.90;;;;;;5093500;28;20044;-81
2022/10/04 01:29:17;;;;;;;5.97;2.67;;;12.20;99.90;;;;;;5094727;28;20087;-81
2022/10/04 01:31:52;;;;;;;8.40;3.42;;;12.20;99.90;;;;;;5094080;28;20490;-81
2022/10/04 01:34:23;;;;;;;10.05;3.33;;;12.20;99.90;;;;;;5093753;28;20470;-80
2022/10/04 01:36:52;;;;;;;9.48;3.40;;;12.20;99.90;;;;;;5077710;28;20124;-81
2022/10/04 01:39:20;;;;;;;8.63;4.00;;;12.10;99.90;;;;;;5094031;28;20400;-81
2022/10/04 01:42:30;;;;;;;7.50;3.17;;;12.10;99.90;;;;;;5088689;28;20039;-82
2022/10/04 01:45:02;;;;;;;5.55;2.90;;;12.10;99.90;;;;;;5048607;28;20127;-81
2022/10/04 01:47:40;;;;;;;5.97;2.80;;;12.00;99.90;;;;;;5110073;28;20040;-81
2022/10/04 01:50:12;;;;;;;7.97;3.20;;;11.90;99.90;;;;;;5081733;28;20509;-82
2022/10/04 01:52:54;;;;;;;6.63;3.25;;;11.80;99.90;;;;;;5076235;28;20040;-81
2022/10/04 01:55:33;;;;;;;8.85;2.70;;;11.80;99.90;;;;;;5093279;28;20050;-82
2022/10/04 01:58:19;;;;;;;4.82;2.45;;;11.60;99.90;;;;;;5093511;28;20114;-81
2022/10/04 02:00:50;;;;;;;7.47;3.20;;;11.50;99.90;;;;;;5092962;28;20032;-82
2022/10/04 02:03:40;;;;;;;8.38;3.30;;;11.40;99.90;;;;;;5093582;28;20039;-81
2022/10/04 02:06:09;;;;;;;7.55;2.90;;;11.40;99.90;;;;;;5110221;28;20036;-81
2022/10/04 02:08:38;;;;;;;6.18;2.80;;;11.30;99.90;;;;;;5093065;28;20039;-81
2022/10/04 02:11:05;;;;;;;5.03;2.58;;;11.20;99.90;;;;;;5093049;28;20036;-81
2022/10/04 02:13:38;;;;;;;5.22;2.55;;;11.10;99.90;;;;;;5093405;28;20047;-81
2022/10/04 02:16:09;;;;;;;4.95;3.00;;;11.00;99.90;;;;;;5076021;28;20135;-82
2022/10/04 02:18:42;;;;;;;5.20;3.00;;;11.00;99.90;;;;;;5093144;28;20044;-82
2022/10/04 02:21:09;;;;;;;7.28;3.25;;;10.90;99.90;;;;;;5076228;28;20072;-82
2022/10/04 02:23:37;;;;;;;8.73;4.18;;;10.90;99.90;;;;;;5075788;28;20470;-82
2022/10/04 02:26:07;;;;;;;6.35;3.28;;;10.90;99.90;;;;;;5091980;28;20051;-82
2022/10/04 02:28:34;;;;;;;6.00;3.03;;;10.80;99.90;;;;;;5093155;28;20028;-80
2022/10/04 02:33:48;;;;;;;8.90;2.47;;;10.70;99.90;;;;;;5092118;28;20048;-80
2022/10/04 02:36:16;;;;;;;6.38;2.40;;;10.60;99.90;;;;;;5090274;28;20039;-80
2022/10/04 02:39:14;;;;;;;4.72;2.60;;;10.60;99.90;;;;;;5090886;28;20040;-80
2022/10/04 02:41:46;;;;;;;6.15;2.85;;;10.50;99.90;;;;;;5090192;28;20074;-80
2022/10/04 02:44:17;;;;;;;7.25;2.67;;;10.50;99.90;;;;;;5091106;28;20036;-80
2022/10/04 02:47:04;;;;;;;5.20;2.25;;;10.40;99.90;;;;;;5090675;28;20036;-80
2022/10/04 02:49:36;;;;;;;7.18;3.53;;;10.40;99.90;;;;;;5086953;28;20056;-80
2022/10/04 02:52:06;;;;;;;4.00;2.38;;;10.40;99.90;;;;;;5075412;28;20036;-80
2022/10/04 02:54:38;;;;;;;5.90;2.70;;;10.30;99.90;;;;;;5092450;28;20044;-80
2022/10/04 02:57:04;;;;;;;8.13;2.58;;;10.20;99.90;;;;;;5082087;28;20437;-79
2022/10/04 02:59:30;;;;;;;7.93;2.95;;;10.20;99.90;;;;;;5075649;28;20062;-79
2022/10/04 03:02:01;;;;;;;5.15;2.50;;;10.20;99.90;;;;;;5091746;28;20179;-80
2022/10/04 03:04:37;;;;;;;4.63;2.40;;;10.20;99.90;;;;;;5092420;28;20036;-80
2022/10/04 03:07:07;;;;;;;5.03;2.10;;;10.10;99.90;;;;;;5075897;28;20435;-79
2022/10/04 03:09:35;;;;;;;4.20;2.60;;;10.10;99.90;;;;;;5075743;28;20111;-80
2022/10/04 03:12:03;;;;;;;3.67;2.03;;;10.00;99.90;;;;;;5075348;28;20040;-80
2022/10/04 03:14:31;;;;;;;5.45;2.58;;;9.90;99.90;;;;;;5092305;28;20059;-79
2022/10/04 03:17:00;;;;;;;4.25;2.67;;;9.90;99.90;;;;;;5091955;28;20044;-80
2022/10/04 03:19:28;;;;;;;4.50;2.58;;;9.90;99.90;;;;;;5075112;28;20523;-79
2022/10/04 03:21:58;;;;;;;6.20;2.65;;;9.80;99.90;;;;;;5091805;28;20039;-80
2022/10/04 03:24:32;;;;;;;5.15;2.35;;;9.80;99.90;;;;;;5075676;28;20035;-79
2022/10/04 03:27:01;;;;;;;3.83;2.20;;;9.70;99.90;;;;;;5091992;28;20481;-80
2022/10/04 03:29:30;;;;;;;4.45;2.28;;;9.70;99.90;;;;;;5075181;28;20436;-79
2022/10/04 03:32:00;;;;;;;5.35;2.50;;;9.60;99.90;;;;;;5086570;28;20040;-79
2022/10/04 03:34:37;;;;;;;3.05;2.13;;;9.60;99.90;;;;;;5078271;28;20040;-82
2022/10/04 03:37:08;;;;;;;5.25;2.38;;;9.50;99.90;;;;;;5072995;28;20044;-81
2022/10/04 03:39:44;;;;;;;7.72;3.65;;;9.50;99.90;;;;;;5082631;28;20032;-82
2022/10/04 03:42:14;;;;;;;8.48;3.40;;;9.50;99.90;;;;;;5074087;28;20123;-82
2022/10/04 03:44:41;;;;;;;6.20;2.80;;;9.70;99.90;;;;;;5090105;28;20044;-81
2022/10/04 03:47:20;;;;;;;6.28;2.95;;;9.40;99.90;;;;;;5073384;28;20470;-81
2022/10/04 03:49:46;;;;;;;7.28;3.05;;;9.50;99.90;;;;;;5070466;28;20046;-81
2022/10/04 03:52:19;;;;;;;6.13;3.00;;;9.60;99.90;;;;;;5064257;28;20045;-80
2022/10/04 03:54:46;;;;;;;6.63;3.10;;;9.40;99.90;;;;;;5069883;28;20102;-80
2022/10/04 03:57:12;;;;;;;6.25;3.08;;;9.60;99.90;;;;;;5068380;28;20409;-80
2022/10/04 03:59:38;;;;;;;6.05;2.90;;;9.40;99.90;;;;;;5091292;28;20066;-81
2022/10/04 04:02:23;;;;;;;4.57;2.85;;;9.40;99.90;;;;;;5091183;28;20062;-81
2022/10/04 04:05:09;;;;;;;6.65;2.78;;;9.40;99.90;;;;;;5091982;28;20486;-80
2022/10/04 04:08:02;;;;;;;6.10;3.38;;;9.40;99.90;;;;;;5074907;28;20048;-81
2022/10/04 04:10:32;;;;;;;6.70;2.97;;;9.40;99.90;;;;;;5074118;28;20432;-82
2022/10/04 04:13:26;;;;;;;11.70;3.55;;;9.30;99.90;;;;;;5074257;28;20042;-82
2022/10/04 04:15:54;;;;;;;12.93;3.78;;;9.40;99.90;;;;;;5095466;28;20064;-81
2022/10/04 04:18:26;;;;;;;5.47;3.13;;;9.40;99.90;;;;;;5095080;28;20044;-81
2022/10/04 04:20:58;;;;;;;9.32;3.72;;;9.40;99.90;;;;;;5094725;28;20040;-82
2022/10/04 04:23:34;;;;;;;7.22;3.03;;;9.50;99.90;;;;;;5095404;28;20043;-81
2022/10/04 04:26:11;;;;;;;5.82;2.65;;;9.40;99.90;;;;;;5078507;28;20028;-82
2022/10/04 04:28:47;;;;;;;5.03;2.95;;;9.40;99.90;;;;;;5078303;28;20104;-81
2022/10/04 04:31:22;;;;;;;5.68;2.90;;;9.40;99.90;;;;;;5095435;28;20047;-81
2022/10/04 04:34:10;;;;;;;12.02;3.92;;;9.40;99.90;;;;;;5094971;28;20083;-81
2022/10/04 04:36:40;;;;;;;6.90;3.85;;;9.40;99.90;;;;;;5074653;28;20080;-81
2022/10/04 04:39:42;;;;;;;6.80;3.55;;;9.40;99.90;;;;;;5085838;28;20106;-81
2022/10/04 04:42:14;;;;;;;8.05;3.45;;;9.40;99.90;;;;;;5076110;28;20122;-81
2022/10/04 04:45:13;;;;;;;9.05;4.68;;;9.40;99.90;;;;;;5094924;28;20028;-82
2022/10/04 04:47:46;;;;;;;8.20;4.25;;;9.50;99.90;;;;;;5076980;28;20117;-81
2022/10/04 04:50:16;;;;;;;12.65;3.42;;;9.50;99.90;;;;;;5089503;28;20051;-82
2022/10/04 04:52:54;;;;;;;10.50;3.60;;;9.60;99.90;;;;;;5094301;28;20088;-81
2022/10/04 04:55:35;;;;;;;7.50;3.17;;;9.50;99.90;;;;;;5091270;28;20497;-81
2022/10/04 04:58:02;;;;;;;7.30;3.38;;;9.50;99.90;;;;;;5095353;28;20040;-81
2022/10/04 05:00:30;;;;;;;8.27;3.55;;;9.60;99.90;;;;;;5077935;28;20067;-81
2022/10/04 05:02:58;;;;;;;7.35;3.40;;;9.60;99.90;;;;;;5077652;28;20032;-81
2022/10/04 05:05:31;;;;;;;7.50;3.60;;;9.50;99.90;;;;;;5077028;28;20542;-82
2022/10/04 05:08:10;;;;;;;9.63;4.45;;;9.50;99.90;;;;;;5094483;28;20048;-81
2022/10/04 05:10:58;;;;;;;9.60;3.55;;;9.50;99.90;;;;;;5093745;28;20075;-81
2022/10/04 05:13:41;;;;;;;7.05;3.35;;;9.40;99.90;;;;;;5063199;28;20485;-82
2022/10/04 05:16:41;;;;;;;9.32;3.90;;;9.40;99.90;;;;;;5093748;28;20048;-82
2022/10/04 05:19:16;;;;;;;10.65;4.75;;;9.40;99.90;;;;;;5075488;28;20044;-81
2022/10/04 05:21:46;;;;;;;12.00;4.87;;;9.50;99.90;;;;;;5093857;28;20038;-82
2022/10/04 05:24:23;;;;;;;7.63;3.35;;;9.50;99.90;;;;;;5076324;28;20372;-82
2022/10/04 05:26:49;;;;;;;;;;;9.50;99.90;;;;;;5085190;28;20085;-82
2022/10/04 05:29:20;;;;;;;8.50;3.92;;;9.50;99.90;;;;;;5077469;28;19969;-81
2022/10/04 05:32:00;;;;;;;6.00;3.33;;;9.50;99.90;;;;;;5094013;28;20129;-82
2022/10/04 05:34:29;;;;;;;6.95;3.80;;;9.40;99.90;;;;;;5093646;28;20089;-82
2022/10/04 05:37:23;;;;;;;7.53;3.95;;;9.50;99.90;;;;;;5093978;28;20055;-81
2022/10/04 05:40:01;;;;;;;10.13;5.15;;;9.50;99.90;;;;;;5093903;28;20172;-81
2022/10/04 05:42:33;;;;;;;7.72;4.13;;;9.50;99.90;;;;;;5093822;28;20063;-82
2022/10/04 05:45:00;;;;;;;6.53;4.07;;;9.50;99.90;;;;;;5093912;28;20032;-82
2022/10/04 05:47:29;;;;;;;6.78;4.15;;;9.50;99.90;;;;;;5073913;28;20041;-82
2022/10/04 05:49:57;;;;;;;9.65;4.88;;;9.50;99.90;;;;;;5080893;28;20031;-82
2022/10/04 05:52:35;;;;;;;9.38;4.65;;;9.60;99.90;;;;;;5092689;28;20439;-82
2022/10/04 05:55:25;;;;;;;9.27;4.97;;;9.60;99.90;;;;;;5074852;28;20575;-82
2022/10/04 05:58:20;;;;;;;7.97;4.60;;;9.70;99.90;;;;;;5093520;28;20044;-82
2022/10/04 06:00:48;;;;;;;8.27;4.53;;;9.80;99.90;;;;;;5089642;28;20036;-82
2022/10/04 06:03:39;;;;;;;9.23;4.65;;;10.10;99.90;;;;;;5082591;28;20040;-82
2022/10/04 06:06:23;;;;;;;11.52;4.40;;;9.90;99.90;;;;;;5091572;28;20085;-82
2022/10/04 06:09:19;;;;;;;11.77;4.70;;;10.10;99.90;;;;;;5074672;28;20044;-82
2022/10/04 06:11:48;;;;;;;10.55;5.10;;;9.80;99.90;;;;;;5090284;28;20032;-81
2022/10/04 06:14:39;;;;;;;8.82;4.93;;;9.90;99.90;;;;;;5090233;28;20044;-81
2022/10/04 06:17:37;;;;;;;11.65;4.43;;;10.00;99.90;;;;;;5075581;28;20047;-82
2022/10/04 06:20:40;;;;;;;7.47;4.28;;;10.00;99.90;;;;;;5087965;28;20051;-82
2022/10/04 06:23:17;;;;;;;8.23;4.68;;;10.20;99.90;;;;;;5091322;28;20040;-82
2022/10/04 06:26:09;;;;;;;11.45;5.32;;;10.30;99.90;;;;;;5073774;28;20081;-82
2022/10/04 06:28:40;;;;;;;15.43;5.63;;;10.40;99.90;;;;;;5076662;28;20072;-82
2022/10/04 06:31:20;;;;;;;8.15;5.30;;;10.60;99.90;;;;;;5088833;28;20127;-81
2022/10/04 06:34:20;;;;;;;11.02;5.63;;;10.60;99.90;;;;;;5090811;28;20040;-82
2022/10/04 06:36:49;;;;;;;10.52;5.85;;;10.80;99.90;;;;;;5087868;28;20094;-82
2022/10/04 06:39:34;;;;;;;8.95;5.70;;;10.90;99.90;;;;;;5090931;28;20039;-81
2022/10/04 06:42:38;;;;;;;9.95;5.70;;;11.10;99.90;;;;;;5091200;28;20115;-82
2022/10/04 06:45:28;;;;;;;8.70;5.35;;;11.20;99.90;;;;;;5089893;28;20028;-82
2022/10/04 06:48:27;;;;;;;7.93;4.88;;;11.40;99.90;;;;;;5072312;28;20061;-82
2022/10/04 06:51:31;;;;;;;14.20;5.53;;;11.60;99.90;;;;;;5063970;28;20068;-82
2022/10/04 06:54:20;;;;;;;10.15;4.78;;;11.70;99.90;;;;;;5090337;28;20094;-81
2022/10/04 06:56:58;;;;;;;12.30;5.68;;;11.90;99.90;;;;;;5075118;28;20040;-82
2022/10/04 06:59:43;;;;;;;9.73;5.45;;;12.40;99.90;;;;;;5093337;28;20119;-82
2022/10/04 07:02:24;;;;;;;8.25;4.60;;;13.80;99.90;;;;;;5093616;28;20044;-82
2022/10/04 07:04:57;;;;;;;9.25;4.60;;;14.80;99.90;;;;;;5081979;28;20032;-82
2022/10/04 07:07:36;;;;;;;7.60;4.50;;;14.90;99.90;;;;;;5092938;28;20484;-82
2022/10/04 07:10:16;;;;;;;11.13;4.65;;;15.70;99.90;;;;;;5092299;28;20048;-81
2022/10/04 07:12:47;;;;;;;10.57;4.70;;;17.00;99.90;;;;;;5075405;28;20101;-80
2022/10/04 07:15:28;;;;;;;6.95;3.75;;;18.50;99.90;;;;;;5091085;28;20056;-81
2022/10/04 07:17:57;;;;;;;7.72;3.75;;;19.70;99.90;;;;;;5070770;28;20550;-80
2022/10/04 07:20:32;;;;;;;9.20;3.85;;;20.70;99.90;;;;;;5074359;28;20048;-81
2022/10/04 07:23:21;;;;;;;8.40;3.75;;;21.50;99.90;;;;;;5092331;28;20029;-80
2022/10/04 07:32:04;;;;;;;9.77;3.22;;;20.90;98.20;;;;;;5057855;28;20098;-81
2022/10/04 07:34:49;;;;;;;5.47;3.28;;;19.60;99.90;;;;;;5068812;28;20086;-81
2022/10/04 07:37:16;;;;;;;10.18;4.53;;;18.60;99.90;;;;;;5069995;28;20150;-81
2022/10/04 07:40:34;;;;;;;6.32;2.97;;;17.80;99.90;;;;;;5071267;28;20056;-81
2022/10/04 07:43:19;;;;;;;6.85;3.92;;;17.40;99.90;;;;;;5056539;28;20044;-82
2022/10/04 07:45:47;;;;;;;5.25;3.38;;;16.90;99.90;;;;;;5053587;28;20036;-82
2022/10/04 07:48:15;;;;;;;11.13;3.80;;;16.50;99.90;;;;;;5056481;28;20040;-82
2022/10/04 07:51:01;;;;;;;6.82;3.53;;;16.20;99.90;;;;;;5075841;28;20043;-82
2022/10/04 07:53:40;;;;;;;10.48;3.72;;;16.00;99.90;;;;;;5076088;28;20481;-82
2022/10/04 07:56:30;;;;;;;10.57;4.13;;;15.80;99.90;;;;;;5049606;28;20403;-82
2022/10/04 07:59:21;;;;;;;7.95;3.65;;;15.60;99.90;;;;;;5061970;28;20051;-82
2022/10/04 08:02:12;;;;;;;6.50;3.30;;;15.40;99.90;;;;;;5070459;28;20490;-82
2022/10/04 08:05:19;;;;;;;6.80;3.60;;;15.20;99.90;;;;;;5073009;28;20492;-82
2022/10/04 08:08:19;;;;;;;6.50;3.38;;;16.10;99.90;;;;;;5035386;28;20623;-82
2022/10/04 08:11:04;;;;;;;6.90;3.15;;;17.80;99.90;;;;;;5089550;28;20036;-82
2022/10/04 08:13:58;;;;;;;6.45;3.28;;;19.60;99.90;;;;;;5073775;28;20494;-82
2022/10/04 08:16:35;;;;;;;8.63;3.83;;;21.10;99.90;;;;;;5061247;28;20402;-82
2022/10/04 08:19:32;;;;;;;8.32;3.70;;;22.20;99.60;;;;;;5070031;28;20044;-82
2022/10/04 08:22:03;;;;;;;5.80;2.90;;;22.90;96.90;;;;;;5071711;28;20044;-82
2022/10/04 08:24:55;;;;;;;6.60;3.00;;;23.80;97.40;;;;;;5075441;28;20033;-83
2022/10/04 08:29:41;;;;;;;7.55;3.28;;;24.30;94.90;;;;;;5074992;28;20406;-82
2022/10/04 08:31:04;;;;;;;5.72;2.97;;;24.60;92.70;;;;;;5075519;28;20055;-83
2022/10/04 08:33:55;;;;;;;7.07;3.53;;;24.50;91.40;;;;;;5076667;28;20060;-82
2022/10/04 08:36:21;;;;;;;6.15;2.88;;;24.70;91.30;;;;;;5074750;28;20032;-82
2022/10/04 08:38:53;;;;;;;7.20;2.97;;;24.60;92.00;;;;;;5058384;28;20098;-82
2022/10/04 08:41:57;;;;;;;4.78;3.17;;;25.30;91.50;;;;;;5074264;28;20037;-81
2022/10/04 08:44:41;;;;;;;4.93;2.58;;;25.60;90.90;;;;;;5058518;28;20062;-81
2022/10/04 08:47:36;;;;;;;7.43;3.15;;;25.80;89.60;;;;;;5066403;28;20492;-82
2022/10/04 08:50:40;;;;;;;6.18;2.95;;;25.70;90.40;;;;;;5061975;28;20044;-82
2022/10/04 08:53:43;;;;;;;8.50;3.33;;;26.20;90.40;;;;;;5022787;28;20460;-83
2022/10/04 08:56:16;;;;;;;7.75;2.88;;;26.00;87.80;;;;;;5072718;28;20045;-81
2022/10/04 08:59:19;;;;;;;5.35;2.58;;;25.50;88.30;;;;;;5071388;28;20490;-80
2022/10/04 09:02:15;;;;;;;4.43;2.58;;;25.70;89.40;;;;;;5051156;28;20082;-80
2022/10/04 09:05:16;;;;;;;3.05;2.10;;;27.00;88.90;;;;;;5055411;28;20037;-80
2022/10/04 09:08:06;;;;;;;5.78;2.65;;;27.00;85.00;;;;;;5072774;28;20087;-80
2022/10/04 09:11:10;;;;;;;5.78;2.50;;;27.50;84.60;;;;;;5071795;28;20427;-81
2022/10/04 09:14:08;;;;;;;4.90;2.38;;;27.50;83.80;;;;;;5014324;28;20050;-81
2022/10/04 09:16:44;;;;;;;3.60;1.90;;;27.90;83.80;;;;;;5061536;28;20056;-80
2022/10/04 09:19:27;;;;;;;3.97;2.30;;;28.30;80.80;;;;;;5072472;28;20404;-80
2022/10/04 09:21:56;;;;;;;5.05;2.95;;;27.90;81.50;;;;;;5057141;28;20059;-81
2022/10/04 09:24:33;;;;;;;7.22;2.78;;;28.20;81.30;;;;;;5057413;28;20040;-78
2022/10/04 09:27:35;;;;;;;5.65;2.88;;;28.50;81.90;;;;;;5057357;28;20064;-78
2022/10/04 09:30:18;;;;;;;6.13;2.75;;;28.50;80.70;;;;;;5074496;28;20063;-78
2022/10/04 09:33:09;;;;;;;4.90;2.67;;;28.90;79.90;;;;;;5073376;28;20070;-78
2022/10/04 09:35:46;;;;;;;4.97;2.50;;;28.40;78.90;;;;;;5073886;28;20131;-78
2022/10/04 09:38:49;;;;;;;6.75;3.33;;;28.00;79.50;;;;;;5057138;28;20044;-78
2022/10/04 09:41:40;;;;;;;7.75;3.55;;;27.10;82.20;;;;;;5056829;28;20044;-78
2022/10/04 09:44:45;;;;;;;5.05;3.08;;;26.50;81.80;;;;;;5073364;28;20137;-78
2022/10/04 09:47:30;;;;;;;7.40;3.40;;;25.90;82.90;;;;;;5066382;28;20398;-78
2022/10/04 09:50:01;;;;;;;6.72;3.05;;;25.10;84.20;;;;;;5068990;28;20040;-78
2022/10/04 09:52:45;;;;;;;8.55;4.43;;;24.80;85.50;;;;;;5056684;28;20044;-78
2022/10/04 09:55:29;;;;;;;9.88;3.50;;;24.50;86.00;;;;;;5073007;28;20040;-78
2022/10/04 09:57:58;;;;;;;5.95;3.42;;;24.50;87.50;;;;;;5057068;28;20040;-78
2022/10/04 10:00:50;;;;;;;7.32;3.60;;;24.40;87.30;;;;;;5073347;28;20048;-78
2022/10/04 10:03:16;;;;;;;9.52;4.32;;;24.00;88.30;;;;;;5049106;28;20044;-78
2022/10/04 10:06:18;;;;;;;10.70;5.10;;;23.80;88.10;;;;;;5053992;28;20037;-78
2022/10/04 10:09:05;;;;;;;7.53;3.97;;;23.00;89.80;;;;;;5070941;28;20037;-78
2022/10/04 10:15:21;;;;;;;11.20;4.28;;;22.40;90.70;;;;;;5055656;28;20055;-80
2022/10/04 10:18:20;;;;;;;10.73;4.32;;;21.80;92.20;;;;;;5073189;28;20074;-80
2022/10/04 10:20:54;;;;;;;9.23;4.30;;;21.60;92.60;;;;;;5072043;28;20120;-80
2022/10/04 10:23:42;;;;;;;10.43;4.90;;;21.60;92.80;;;;;;5072822;28;20036;-80
2022/10/04 10:26:35;;;;;;;6.95;4.18;;;21.40;93.30;;;;;;5056277;28;20378;-80
2022/10/04 10:29:26;;;;;;;8.05;4.03;;;21.10;93.50;;;;;;5057857;28;20059;-81
2022/10/04 10:32:24;;;;;;;8.45;4.72;;;20.80;94.10;;;;;;5070306;28;20047;-81
2022/10/04 10:34:53;;;;;;;6.18;3.80;;;20.60;94.70;;;;;;5057084;28;20051;-81
2022/10/04 10:37:39;;;;;;;7.57;3.75;;;21.00;95.00;;;;;;5055189;28;20129;-80
2022/10/04 10:40:31;;;;;;;6.47;3.63;;;21.10;94.40;;;;;;5065786;28;20150;-79
2022/10/04 10:43:22;;;;;;;6.10;3.75;;;21.90;94.40;;;;;;5070368;28;20608;-79
2022/10/04 10:46:05;;;;;;;7.05;3.78;;;22.30;94.80;;;;;;5057679;28;20401;-79
2022/10/04 10:49:09;;;;;;;4.85;2.75;;;23.10;92.60;;;;;;5063823;28;20474;-81
2022/10/04 10:51:56;;;;;;;6.45;3.17;;;24.00;91.90;;;;;;5070182;28;20123;-81
2022/10/04 10:54:31;;;;;;;6.40;3.63;;;24.90;91.20;;;;;;5070286;28;20080;-81
2022/10/04 10:57:05;;;;;;;6.93;3.38;;;25.60;88.70;;;;;;5069960;28;20115;-81
2022/10/04 10:59:46;;;;;;;8.85;3.05;;;24.80;88.80;;;;;;5065929;28;20049;-81
2022/10/04 11:02:39;;;;;;;8.57;3.85;;;23.80;89.60;;;;;;5069597;28;20063;-81
2022/10/04 11:05:38;;;;;;;6.57;2.83;;;23.10;90.90;;;;;;5066342;28;20734;-81
2022/10/04 11:08:23;;;;;;;7.90;3.13;;;23.20;92.00;;;;;;5070174;28;20101;-81
2022/10/04 11:11:06;;;;;;;4.55;2.50;;;22.90;91.00;;;;;;5062701;28;20099;-81
2022/10/04 11:13:41;;;;;;;6.07;2.92;;;22.70;92.10;;;;;;5063449;28;20045;-81
2022/10/04 11:16:20;;;;;;;8.32;3.35;;;23.10;91.70;;;;;;5062007;28;20539;-81
2022/10/04 11:19:16;;;;;;;6.80;3.55;;;23.10;91.60;;;;;;5069883;28;20071;-81
2022/10/04 11:22:10;;;;;;;5.43;3.10;;;22.60;91.90;;;;;;5033208;28;20041;-81
2022/10/04 11:24:54;;;;;;;8.65;2.95;;;22.10;92.80;;;;;;5050374;28;20106;-81
2022/10/04 11:27:42;;;;;;;5.50;3.00;;;22.20;93.20;;;;;;5049997;28;20052;-81
2022/10/04 11:30:13;;;;;;;7.10;2.75;;;22.60;92.20;;;;;;5068639;28;20130;-81
2022/10/04 11:32:38;;;;;;;5.57;3.05;;;22.40;93.00;;;;;;5070690;28;20090;-81
2022/10/04 11:35:54;;;;;;;5.45;2.60;;;22.80;92.40;;;;;;5072139;28;20522;-81
2022/10/04 11:38:50;;;;;;;4.20;2.53;;;23.60;92.50;;;;;;5053347;28;20094;-81
2022/10/04 11:41:53;;;;;;;5.75;2.55;;;24.20;91.70;;;;;;5061938;28;20056;-81
2022/10/04 11:44:28;;;;;;;5.05;2.00;;;24.30;89.90;;;;;;5053402;28;20045;-81
2022/10/04 11:47:47;;;;;;;7.68;2.58;;;24.30;91.00;;;;;;5054830;28;20047;-81
2022/10/04 11:50:34;;;;;;;6.88;2.90;;;23.80;90.70;;;;;;4995168;28;20500;-81
2022/10/04 11:53:24;;;;;;;5.43;2.58;;;22.80;91.40;;;;;;5009992;28;20054;-80
2022/10/04 11:56:21;;;;;;;6.95;2.40;;;22.20;92.80;;;;;;5056314;28;20053;-80
2022/10/04 11:59:08;;;;;;;5.13;2.55;;;21.70;93.50;;;;;;5069362;28;20044;-80
2022/10/04 12:01:59;;;;;;;4.72;2.60;;;21.30;94.00;;;;;;5052826;28;20072;-80
2022/10/04 12:04:46;;;;;;;4.25;2.15;;;21.30;94.80;;;;;;5054723;28;20087;-79
2022/10/04 12:07:30;;;;;;;3.55;2.15;;;21.50;94.80;;;;;;5079009;28;20033;-79
2022/10/04 12:10:23;;;;;;;5.60;2.88;;;22.10;94.20;;;;;;5070032;28;20131;-82
2022/10/04 12:12:51;;;;;;;5.50;2.47;;;22.10;94.30;;;;;;5071518;28;20040;-81
2022/10/04 12:15:37;;;;;;;5.40;2.83;;;22.10;93.40;;;;;;5071515;28;20387;-81
2022/10/04 12:18:36;;;;;;;6.70;2.88;;;21.50;93.80;;;;;;5054443;28;20045;-81
2022/10/04 12:21:43;;;;;;;6.05;2.88;;;21.30;94.70;;;;;;5071350;28;20044;-80
2022/10/04 12:24:26;;;;;;;5.47;2.97;;;21.00;95.70;;;;;;5070541;28;20119;-80
2022/10/04 12:27:07;;;;;;;4.88;2.50;;;20.80;95.70;;;;;;5071125;28;20039;-81
2022/10/04 12:29:55;;;;;;;5.45;2.60;;;20.90;95.40;;;;;;5054354;28;20071;-81
2022/10/04 12:32:26;;;;;;;5.60;2.45;;;21.10;96.30;;;;;;5051595;28;20048;-81
2022/10/04 12:35:10;;;;;;;5.82;2.25;;;21.20;95.70;;;;;;5042049;28;20537;-82
2022/10/04 12:38:07;;;;;;;3.65;2.25;;;21.30;96.10;;;;;;5066328;28;20044;-81
2022/10/04 12:40:47;;;;;;;4.78;2.58;;;21.10;95.40;;;;;;5074613;28;21384;-81
2022/10/04 12:43:20;;;;;;;4.68;2.60;;;21.10;95.40;;;;;;5074917;28;20047;-81
2022/10/04 12:45:51;;;;;;;6.57;2.33;;;20.70;95.90;;;;;;5075224;28;20402;-81
2022/10/04 12:48:36;;;;;;;5.82;2.75;;;20.60;96.40;;;;;;5051249;28;20052;-81
2022/10/04 12:51:33;;;;;;;6.20;2.60;;;20.50;96.90;;;;;;5056864;28;20509;-81
2022/10/04 12:54:18;;;;;;;3.53;2.22;;;20.50;96.60;;;;;;5067279;28;20356;-81
2022/10/04 12:57:11;;;;;;;6.18;2.42;;;20.70;96.50;;;;;;5075331;28;20076;-80
2022/10/04 12:59:52;;;;;;;5.68;3.03;;;21.00;96.50;;;;;;5058501;28;20033;-81
2022/10/04 13:02:56;;;;;;;4.57;2.50;;;21.30;95.30;;;;;;5074209;28;20123;-80
2022/10/04 13:05:32;;;;;;;5.13;2.70;;;21.60;94.90;;;;;;5000922;28;20360;-80
2022/10/04 13:08:06;;;;;;;5.93;2.33;;;21.60;95.20;;;;;;5002963;28;20045;-80
2022/10/04 13:10:46;;;;;;;6.32;2.97;;;21.60;95.70;;;;;;5038515;28;20452;-80
2022/10/04 13:13:46;;;;;;;3.35;2.08;;;21.50;95.60;;;;;;5049040;28;20062;-80
2022/10/04 13:16:33;;;;;;;5.43;2.10;;;21.20;94.90;;;;;;5074727;28;20068;-80
2022/10/04 13:19:11;;;;;;;4.85;2.50;;;21.20;95.20;;;;;;5073719;28;20029;-80
2022/10/04 13:21:40;;;;;;;6.32;2.97;;;20.70;95.00;;;;;;5055474;28;20037;-80
2022/10/04 13:24:54;;;;;;;4.97;2.63;;;20.60;95.70;;;;;;5074539;28;20103;-80
2022/10/04 13:27:27;;;;;;;6.38;2.75;;;20.50;96.50;;;;;;5086750;28;20120;-82
2022/10/04 13:30:22;;;;;;;5.15;2.42;;;20.40;96.70;;;;;;5050358;28;20036;-80
2022/10/04 13:33:13;;;;;;;4.13;2.45;;;20.60;97.30;;;;;;5074393;28;20490;-80
2022/10/04 13:35:45;;;;;;;4.57;2.22;;;20.90;97.20;;;;;;5057995;28;20398;-80
2022/10/04 13:39:16;;;;;;;8.00;2.70;;;21.10;96.50;;;;;;5074447;28;20040;-79
2022/10/04 13:42:15;;;;;;;5.78;2.92;;;21.40;96.10;;;;;;4999530;28;20053;-80
2022/10/04 13:44:56;;;;;;;5.28;2.60;;;21.30;94.90;;;;;;5072310;28;20036;-79
2022/10/04 13:47:26;;;;;;;6.22;2.40;;;21.10;95.30;;;;;;5065397;28;20045;-80
2022/10/04 13:50:01;;;;;;;7.18;2.80;;;21.00;95.30;;;;;;5068311;28;20082;-80
2022/10/04 13:59:14;;;;;;;4.97;2.38;;;20.20;95.80;;;;;;5097597;22;20044;-79
2022/10/04 14:02:11;;;;;;;7.13;2.88;;;20.10;96.00;;;;;;5054981;28;20351;-79
2022/10/04 14:04:59;;;;;;;5.13;2.50;;;20.10;96.30;;;;;;5091584;28;20040;-79
2022/10/04 14:07:50;;;;;;;5.88;2.45;;;19.90;97.00;;;;;;5089964;28;20090;-79
2022/10/04 14:10:53;;;;;;;6.90;3.15;;;20.00;97.30;;;;;;5085984;28;20036;-82
2022/10/04 14:13:43;;;;;;;3.65;2.03;;;20.00;97.30;;;;;;5076593;28;20074;-82
2022/10/04 14:16:33;;;;;;;5.68;2.50;;;20.00;97.20;;;;;;5094088;28;20478;-80
2022/10/04 14:19:22;;;;;;;4.50;2.50;;;20.00;97.00;;;;;;5093053;28;20051;-80
2022/10/04 14:22:26;;;;;;;5.40;3.03;;;20.00;96.90;;;;;;5075931;28;20040;-80